Time;durP1;ratioP1;P1;durP2;ratioP2;P2;SDS_P1;SDS_P2;PMS_P1;PMS_P2;Temp;Humidity;BMP_temperature;BMP_pressure;BME280_temperature;BME280_humidity;BME280_pressure;Samples;Min_cycle;Max_cycle;Signal;HPM_P1;HPM_P2
2020/12/26 00:01:26;;;;;;;5.93;4.67;;;2.00;99.90;;;;;;5040417;28;20243;-53
2020/12/26 00:03:51;;;;;;;5.50;4.53;;;2.00;99.90;;;;;;5038316;28;20187;-48
2020/12/26 00:06:18;;;;;;;5.90;5.00;;;2.00;99.90;;;;;;5021260;28;20426;-56
2020/12/26 00:08:44;;;;;;;4.80;4.30;;;2.00;99.90;;;;;;5040164;28;20215;-53
2020/12/26 00:11:14;;;;;;;5.63;4.80;;;2.10;99.90;;;;;;5036234;28;20438;-56
2020/12/26 00:13:40;;;;;;;5.50;4.50;;;2.00;99.90;;;;;;5035959;28;20466;-51
2020/12/26 00:16:06;;;;;;;5.27;4.37;;;2.00;99.90;;;;;;5036793;28;20403;-55
2020/12/26 00:18:32;;;;;;;4.73;4.23;;;2.00;99.90;;;;;;5038447;28;20188;-54
2020/12/26 00:21:05;;;;;;;4.83;4.10;;;1.90;99.90;;;;;;5036260;28;20410;-51
2020/12/26 00:23:31;;;;;;;5.53;4.50;;;1.80;99.90;;;;;;5040077;28;20517;-47
2020/12/26 00:25:56;;;;;;;4.60;4.10;;;1.80;99.90;;;;;;5036032;28;20818;-52
2020/12/26 00:28:22;;;;;;;5.60;4.50;;;1.70;99.90;;;;;;5035127;28;20294;-55
2020/12/26 00:30:47;;;;;;;4.90;4.07;;;1.80;99.90;;;;;;5033910;28;20235;-48
2020/12/26 00:33:13;;;;;;;5.30;4.33;;;1.80;99.90;;;;;;5041841;28;20249;-57
2020/12/26 00:35:39;;;;;;;5.83;4.40;;;1.80;99.90;;;;;;5035297;28;20171;-52
2020/12/26 00:38:04;;;;;;;4.93;4.07;;;1.80;99.90;;;;;;5037776;28;20220;-47
2020/12/26 00:40:30;;;;;;;5.47;4.43;;;1.80;99.90;;;;;;5036126;28;20199;-49
2020/12/26 00:42:55;;;;;;;5.80;4.80;;;1.70;99.90;;;;;;5039149;28;20195;-49
2020/12/26 00:45:21;;;;;;;6.20;5.30;;;1.70;99.90;;;;;;5034701;28;20528;-55
2020/12/26 00:47:46;;;;;;;6.23;5.27;;;1.70;99.90;;;;;;5036634;28;20198;-52
2020/12/26 00:50:13;;;;;;;7.13;5.60;;;1.80;99.90;;;;;;5038049;28;20180;-56
2020/12/26 00:52:39;;;;;;;7.00;5.77;;;1.80;99.90;;;;;;5034376;28;20171;-47
2020/12/26 00:55:05;;;;;;;7.40;5.53;;;1.80;99.90;;;;;;5039906;28;20398;-49
2020/12/26 00:57:30;;;;;;;7.57;6.00;;;1.70;99.90;;;;;;5035105;28;20190;-51
2020/12/26 00:59:56;;;;;;;7.60;6.10;;;1.70;99.90;;;;;;5035711;28;20265;-49
2020/12/26 01:02:21;;;;;;;7.40;6.30;;;1.70;99.90;;;;;;5034792;28;20176;-53
2020/12/26 01:04:47;;;;;;;8.83;6.57;;;1.70;99.90;;;;;;5033636;28;20180;-54
2020/12/26 01:07:12;;;;;;;7.63;6.27;;;1.60;99.90;;;;;;5036093;28;20187;-52
2020/12/26 01:09:38;;;;;;;7.80;6.27;;;1.60;99.90;;;;;;5035018;28;20198;-47
2020/12/26 01:12:04;;;;;;;8.27;6.63;;;1.60;99.90;;;;;;5018941;28;20183;-55
2020/12/26 01:14:30;;;;;;;7.77;6.37;;;1.60;99.90;;;;;;5035918;28;20233;-49
2020/12/26 01:16:56;;;;;;;9.23;6.67;;;1.60;99.90;;;;;;5035660;28;20438;-57
2020/12/26 01:19:21;;;;;;;8.13;6.93;;;1.70;99.90;;;;;;5036554;28;20215;-54
2020/12/26 01:21:51;;;;;;;8.20;7.07;;;1.80;99.90;;;;;;5033821;28;20176;-54
2020/12/26 01:24:20;;;;;;;8.73;7.10;;;1.80;99.90;;;;;;5034000;28;20270;-54
2020/12/26 01:26:50;;;;;;;8.67;6.80;;;1.80;99.90;;;;;;5033986;28;20418;-49
2020/12/26 01:29:17;;;;;;;8.73;7.17;;;1.70;99.90;;;;;;5038828;28;20511;-55
2020/12/26 01:31:47;;;;;;;8.57;7.40;;;1.60;99.90;;;;;;5035327;28;20816;-50
2020/12/26 01:34:13;;;;;;;9.00;6.90;;;1.50;99.90;;;;;;5037343;28;20561;-54
2020/12/26 01:36:38;;;;;;;9.80;7.47;;;1.50;99.90;;;;;;5037168;28;20477;-57
2020/12/26 01:39:04;;;;;;;12.17;8.50;;;1.50;99.90;;;;;;5039172;28;20652;-49
2020/12/26 01:41:29;;;;;;;9.87;7.97;;;1.50;99.90;;;;;;5035763;28;20171;-53
2020/12/26 01:44:00;;;;;;;9.23;7.57;;;1.50;99.90;;;;;;5037290;28;20175;-55
2020/12/26 01:46:31;;;;;;;11.63;9.03;;;1.40;99.90;;;;;;5038081;28;20190;-51
2020/12/26 01:48:58;;;;;;;10.43;8.47;;;1.30;99.90;;;;;;5036943;28;20825;-48
2020/12/26 01:51:26;;;;;;;11.70;8.47;;;1.30;99.90;;;;;;5034370;28;20791;-56
2020/12/26 01:53:53;;;;;;;9.77;7.73;;;1.30;99.90;;;;;;5038330;28;20454;-52
2020/12/26 01:56:19;;;;;;;9.20;7.87;;;2.30;99.90;;;;;;5033789;28;20760;-52
2020/12/26 01:58:45;;;;;;;10.00;8.27;;;1.30;99.90;;;;;;5038637;28;20431;-51
2020/12/26 02:01:11;;;;;;;10.33;8.20;;;1.20;99.90;;;;;;5037558;28;20410;-56
2020/12/26 02:03:39;;;;;;;11.33;9.20;;;1.20;99.90;;;;;;5037846;28;20206;-54
2020/12/26 02:06:06;;;;;;;10.17;8.10;;;1.20;99.90;;;;;;5037398;28;20424;-57
2020/12/26 02:08:32;;;;;;;10.37;8.23;;;1.30;99.90;;;;;;5038096;28;20834;-57
2020/12/26 02:10:58;;;;;;;10.33;8.10;;;1.30;99.90;;;;;;5033908;28;20890;-47
2020/12/26 02:13:23;;;;;;;10.97;8.37;;;1.30;99.90;;;;;;5036833;28;20515;-54
2020/12/26 02:16:05;;;;;;;11.13;8.17;;;1.40;99.90;;;;;;5035284;28;20176;-54
2020/12/26 02:18:34;;;;;;;10.27;7.93;;;1.50;99.90;;;;;;5035645;28;20204;-50
2020/12/26 02:21:01;;;;;;;9.80;8.27;;;1.60;99.90;;;;;;5039478;28;20873;-51
2020/12/26 02:23:27;;;;;;;11.17;8.23;;;1.50;99.90;;;;;;5032141;28;20468;-52
2020/12/26 02:25:56;;;;;;;10.47;7.90;;;1.50;99.90;;;;;;5038284;28;20474;-51
2020/12/26 02:28:22;;;;;;;9.27;7.20;;;1.40;99.90;;;;;;5038682;28;20198;-54
2020/12/26 02:30:48;;;;;;;8.73;7.43;;;2.00;99.90;;;;;;5037203;28;20441;-54
2020/12/26 02:33:14;;;;;;;9.53;6.77;;;1.30;99.90;;;;;;5038064;28;20441;-57
2020/12/26 02:35:40;;;;;;;8.67;7.10;;;1.40;99.90;;;;;;5034912;28;20203;-49
2020/12/26 02:38:06;;;;;;;8.23;6.60;;;1.40;99.90;;;;;;5034986;28;20437;-49
2020/12/26 02:40:31;;;;;;;7.53;6.30;;;1.40;99.90;;;;;;5032617;28;20255;-47
2020/12/26 02:42:57;;;;;;;8.30;6.57;;;1.40;99.90;;;;;;5037132;28;20190;-53
2020/12/26 02:45:23;;;;;;;7.27;6.30;;;1.50;99.90;;;;;;5037436;28;20171;-51
2020/12/26 02:47:48;;;;;;;7.63;5.67;;;1.60;99.90;;;;;;5038139;28;20192;-55
2020/12/26 02:50:14;;;;;;;6.53;5.73;;;1.50;99.90;;;;;;5038898;28;20174;-51
2020/12/26 02:52:39;;;;;;;7.20;5.90;;;1.50;99.90;;;;;;5035115;28;20226;-53
2020/12/26 02:55:05;;;;;;;6.47;5.57;;;1.50;99.90;;;;;;5037630;28;20210;-52
2020/12/26 02:57:30;;;;;;;6.33;5.60;;;1.40;99.90;;;;;;5037529;28;20215;-50
2020/12/26 02:59:56;;;;;;;8.43;5.43;;;1.40;99.90;;;;;;5040204;28;20164;-48
2020/12/26 03:02:21;;;;;;;6.33;5.60;;;1.50;99.90;;;;;;5041103;28;20180;-53
2020/12/26 03:04:47;;;;;;;8.13;5.90;;;1.60;99.90;;;;;;5038674;28;20229;-49
2020/12/26 03:07:12;;;;;;;6.70;5.20;;;1.50;99.90;;;;;;5041930;28;20199;-53
2020/12/26 03:09:38;;;;;;;7.27;5.60;;;1.60;99.90;;;;;;5040037;28;20269;-56
2020/12/26 03:12:03;;;;;;;6.47;5.63;;;1.50;99.90;;;;;;5042712;28;20591;-48
2020/12/26 03:14:29;;;;;;;7.33;5.67;;;1.50;99.90;;;;;;5039547;28;20656;-54
2020/12/26 03:16:54;;;;;;;5.33;4.83;;;1.50;99.90;;;;;;5038425;28;20174;-48
2020/12/26 03:19:20;;;;;;;6.10;4.90;;;1.50;99.90;;;;;;5039678;28;20552;-54
2020/12/26 03:21:45;;;;;;;6.57;5.60;;;1.60;99.90;;;;;;5037533;28;20168;-49
2020/12/26 03:24:11;;;;;;;5.77;4.80;;;1.60;99.90;;;;;;5040363;28;20242;-54
2020/12/26 03:26:36;;;;;;;6.70;5.57;;;1.60;99.90;;;;;;5034588;28;20930;-55
2020/12/26 03:29:02;;;;;;;6.37;4.93;;;1.50;99.90;;;;;;5018017;28;20668;-57
2020/12/26 03:31:27;;;;;;;6.70;5.20;;;1.50;99.90;;;;;;5020484;28;20177;-55
2020/12/26 03:33:53;;;;;;;6.10;5.30;;;1.50;99.90;;;;;;5019216;28;20720;-52
2020/12/26 03:36:18;;;;;;;5.87;4.63;;;1.60;99.90;;;;;;5019471;28;20180;-52
2020/12/26 03:38:44;;;;;;;7.10;4.90;;;1.60;99.90;;;;;;5018329;28;20196;-57
2020/12/26 03:41:09;;;;;;;7.87;5.37;;;1.50;99.90;;;;;;5002791;28;20164;-49
2020/12/26 03:43:35;;;;;;;6.07;5.23;;;1.50;99.90;;;;;;5015781;28;20315;-52
2020/12/26 03:46:00;;;;;;;5.57;4.97;;;1.60;99.90;;;;;;5016824;28;20219;-52
2020/12/26 03:48:26;;;;;;;5.70;5.10;;;1.60;99.90;;;;;;5018319;28;20291;-51
2020/12/26 03:50:52;;;;;;;5.83;4.80;;;1.60;99.90;;;;;;5017710;28;20203;-54
2020/12/26 03:53:17;;;;;;;6.93;5.20;;;1.50;99.90;;;;;;5016181;28;20204;-51
2020/12/26 03:55:43;;;;;;;6.93;5.40;;;1.60;99.90;;;;;;5019158;28;20191;-57
2020/12/26 03:58:08;;;;;;;5.87;5.23;;;1.60;99.90;;;;;;5017898;28;20427;-52
2020/12/26 04:00:34;;;;;;;6.67;5.60;;;1.60;99.90;;;;;;5019310;28;20227;-57
2020/12/26 04:02:59;;;;;;;5.70;4.90;;;1.60;99.90;;;;;;5036302;28;20268;-50
2020/12/26 04:05:25;;;;;;;5.80;5.17;;;1.60;99.90;;;;;;5036830;28;20259;-56
2020/12/26 04:07:51;;;;;;;5.87;4.90;;;1.50;99.90;;;;;;5037375;28;20282;-57
2020/12/26 04:10:16;;;;;;;6.00;5.07;;;1.60;99.90;;;;;;5037313;28;20243;-55
2020/12/26 04:12:42;;;;;;;5.33;4.73;;;1.50;99.90;;;;;;5038625;28;20403;-54
2020/12/26 04:15:07;;;;;;;6.53;5.10;;;1.50;99.90;;;;;;5035428;28;20258;-56
2020/12/26 04:17:33;;;;;;;5.50;4.90;;;1.50;99.90;;;;;;5033152;28;20823;-49
2020/12/26 04:19:59;;;;;;;4.97;4.40;;;1.50;99.90;;;;;;5037014;28;20509;-49
2020/12/26 04:22:24;;;;;;;6.23;5.07;;;1.60;99.90;;;;;;5034276;28;20310;-50
2020/12/26 04:24:50;;;;;;;5.40;4.77;;;1.50;99.90;;;;;;5037806;28;20640;-51
2020/12/26 04:27:15;;;;;;;7.23;4.60;;;1.50;99.90;;;;;;5037187;28;20203;-51
2020/12/26 04:29:42;;;;;;;5.13;4.50;;;1.40;99.90;;;;;;5036639;28;20247;-57
2020/12/26 04:32:07;;;;;;;4.73;4.20;;;1.50;99.90;;;;;;5036014;28;20174;-52
2020/12/26 04:34:33;;;;;;;4.90;4.40;;;1.50;99.90;;;;;;5035999;28;20464;-48
2020/12/26 04:36:58;;;;;;;4.90;4.40;;;1.40;99.90;;;;;;5037924;28;20195;-47
2020/12/26 04:39:24;;;;;;;4.40;3.93;;;1.40;99.90;;;;;;5037467;28;20242;-55
2020/12/26 04:41:49;;;;;;;4.63;4.17;;;1.50;99.90;;;;;;5038096;28;20233;-52
2020/12/26 04:44:16;;;;;;;4.67;3.67;;;1.40;99.90;;;;;;5039016;28;20539;-49
2020/12/26 04:46:43;;;;;;;4.73;3.80;;;1.40;99.90;;;;;;5039240;28;20183;-57
2020/12/26 04:49:10;;;;;;;4.40;4.00;;;1.40;99.90;;;;;;5034823;28;20433;-56
2020/12/26 04:51:37;;;;;;;4.43;3.47;;;1.50;99.90;;;;;;5037434;28;20855;-57
2020/12/26 04:54:31;;;;;;;4.30;3.70;;;1.30;99.90;;;;;;5037711;28;21004;-53
2020/12/26 04:56:57;;;;;;;3.90;3.50;;;1.40;99.90;;;;;;5036844;28;20510;-57
2020/12/26 04:59:23;;;;;;;3.60;3.30;;;1.40;99.90;;;;;;5035757;28;20458;-56
2020/12/26 05:01:51;;;;;;;4.33;3.00;;;1.50;99.90;;;;;;5034977;28;20186;-52
2020/12/26 05:04:17;;;;;;;4.40;3.30;;;1.50;99.90;;;;;;5041341;28;20918;-54
2020/12/26 05:06:47;;;;;;;3.50;2.87;;;1.50;99.90;;;;;;5020197;28;20414;-56
2020/12/26 05:09:15;;;;;;;3.47;3.17;;;1.50;99.90;;;;;;5039022;28;20226;-47
2020/12/26 05:11:50;;;;;;;2.80;2.60;;;1.50;99.90;;;;;;5037841;28;20418;-54
2020/12/26 05:14:17;;;;;;;3.13;2.83;;;1.50;99.90;;;;;;5033715;28;20442;-49
2020/12/26 05:16:42;;;;;;;3.07;2.50;;;1.40;99.90;;;;;;5036119;28;20597;-56
2020/12/26 05:19:09;;;;;;;3.70;2.77;;;1.50;99.90;;;;;;5036370;28;20426;-55
2020/12/26 05:21:34;;;;;;;2.83;2.53;;;1.50;99.90;;;;;;5037787;28;20516;-57
2020/12/26 05:24:05;;;;;;;2.90;2.60;;;1.40;99.90;;;;;;5037841;28;20407;-49
2020/12/26 05:26:38;;;;;;;2.77;2.30;;;1.40;99.90;;;;;;5016795;28;20192;-52
2020/12/26 05:29:03;;;;;;;3.10;2.73;;;1.40;99.90;;;;;;5035792;28;20458;-48
2020/12/26 05:31:45;;;;;;;2.60;2.40;;;1.30;99.90;;;;;;5034214;28;20421;-52
2020/12/26 05:34:11;;;;;;;4.13;2.47;;;1.30;99.90;;;;;;5036063;28;20195;-56
2020/12/26 05:36:37;;;;;;;2.50;2.30;;;1.30;99.90;;;;;;5036024;28;20398;-49
2020/12/26 05:39:04;;;;;;;2.50;2.30;;;1.30;99.90;;;;;;5037644;28;20584;-55
2020/12/26 05:41:30;;;;;;;2.97;2.47;;;1.30;99.90;;;;;;5038512;28;20480;-55
2020/12/26 05:43:57;;;;;;;2.70;2.50;;;1.40;99.90;;;;;;5036682;28;20410;-55
2020/12/26 05:46:22;;;;;;;2.90;2.40;;;1.30;99.90;;;;;;5036275;28;20233;-56
2020/12/26 05:48:48;;;;;;;2.60;2.40;;;1.20;99.90;;;;;;5038546;28;20851;-50
2020/12/26 05:51:26;;;;;;;2.50;2.20;;;1.10;99.90;;;;;;5035806;28;20683;-50
2020/12/26 05:53:56;;;;;;;2.60;2.40;;;0.90;99.90;;;;;;5036976;28;20200;-49
2020/12/26 05:56:22;;;;;;;2.27;2.07;;;0.80;99.90;;;;;;5036989;28;20482;-52
2020/12/26 05:58:47;;;;;;;1.90;1.70;;;0.80;99.90;;;;;;5034595;28;20433;-52
2020/12/26 06:01:20;;;;;;;2.13;1.83;;;0.70;99.90;;;;;;5033148;28;20825;-50
2020/12/26 06:03:46;;;;;;;2.53;2.10;;;0.70;99.90;;;;;;5027307;28;20277;-54
2020/12/26 06:06:14;;;;;;;2.43;2.23;;;0.70;99.90;;;;;;5035679;28;20415;-50
2020/12/26 06:08:39;;;;;;;2.73;2.40;;;0.70;99.90;;;;;;5034934;28;20430;-51
2020/12/26 06:11:06;;;;;;;2.57;2.37;;;0.60;99.90;;;;;;5033644;28;20425;-50
2020/12/26 06:13:34;;;;;;;2.43;2.23;;;0.60;99.90;;;;;;5033953;28;20242;-52
2020/12/26 06:16:15;;;;;;;2.57;2.30;;;0.60;99.90;;;;;;5036119;28;20871;-49
2020/12/26 06:18:48;;;;;;;2.53;2.00;;;0.70;99.90;;;;;;5036170;28;20457;-47
2020/12/26 06:21:16;;;;;;;2.10;1.90;;;0.70;99.90;;;;;;5036478;28;20894;-51
2020/12/26 06:23:42;;;;;;;3.97;2.27;;;0.80;99.90;;;;;;5034464;28;20430;-47
2020/12/26 06:26:07;;;;;;;2.17;2.00;;;0.90;99.90;;;;;;5040693;28;20497;-48
2020/12/26 06:28:34;;;;;;;3.20;2.20;;;1.00;99.90;;;;;;5038502;28;20207;-53
2020/12/26 06:31:05;;;;;;;2.47;2.20;;;1.00;99.90;;;;;;5039291;28;20206;-52
2020/12/26 06:33:39;;;;;;;2.77;2.20;;;1.10;99.90;;;;;;5036607;28;20485;-54
2020/12/26 06:36:06;;;;;;;2.67;2.03;;;1.00;99.90;;;;;;5037318;28;20443;-56
2020/12/26 06:38:32;;;;;;;3.13;2.47;;;1.10;99.90;;;;;;5038577;28;20453;-54
2020/12/26 06:41:15;;;;;;;2.67;2.20;;;1.20;99.90;;;;;;5037081;28;20423;-55
2020/12/26 06:43:56;;;;;;;2.27;2.07;;;1.20;99.90;;;;;;5039994;28;20453;-53
2020/12/26 06:46:22;;;;;;;2.40;2.20;;;1.20;99.90;;;;;;5039148;28;20958;-48
2020/12/26 06:48:54;;;;;;;2.93;2.50;;;1.30;99.90;;;;;;5028286;28;20455;-60
2020/12/26 06:51:41;;;;;;;3.10;2.03;;;1.20;99.90;;;;;;5028320;28;20179;-48
2020/12/26 06:54:07;;;;;;;2.50;2.30;;;1.20;99.90;;;;;;5039033;28;20464;-57
2020/12/26 06:56:33;;;;;;;3.30;3.00;;;1.20;99.90;;;;;;5036732;28;20411;-54
2020/12/26 06:59:09;;;;;;;2.43;2.23;;;1.20;99.90;;;;;;5038349;28;20762;-55
2020/12/26 07:01:36;;;;;;;2.47;2.27;;;1.20;99.90;;;;;;5038869;28;20192;-49
2020/12/26 07:04:11;;;;;;;2.60;2.40;;;1.10;99.90;;;;;;5040074;28;20407;-56
2020/12/26 07:06:38;;;;;;;2.10;2.00;;;1.10;99.90;;;;;;5037838;28;20445;-56
2020/12/26 07:09:04;;;;;;;2.57;2.13;;;1.20;99.90;;;;;;5039911;28;20433;-57
2020/12/26 07:11:30;;;;;;;2.50;2.30;;;1.20;99.90;;;;;;5043679;28;20482;-56
2020/12/26 07:13:56;;;;;;;2.23;2.03;;;1.20;99.90;;;;;;5038567;28;20500;-47
2020/12/26 07:16:40;;;;;;;2.80;2.10;;;1.10;99.90;;;;;;5038479;28;20187;-47
2020/12/26 07:19:25;;;;;;;3.00;2.70;;;1.10;99.90;;;;;;5037243;28;20223;-50
2020/12/26 07:21:52;;;;;;;2.40;2.20;;;1.20;99.90;;;;;;5040794;28;20469;-49
2020/12/26 07:24:21;;;;;;;3.03;2.33;;;1.20;99.90;;;;;;5036558;28;20446;-50
2020/12/26 07:26:46;;;;;;;2.73;2.30;;;1.30;99.90;;;;;;5032473;28;20450;-47
2020/12/26 07:29:28;;;;;;;2.00;1.90;;;1.50;99.90;;;;;;5037076;28;20474;-51
2020/12/26 07:31:54;;;;;;;2.60;1.80;;;1.60;99.90;;;;;;5035679;28;20227;-50
2020/12/26 07:34:42;;;;;;;2.43;2.23;;;1.60;99.90;;;;;;5037116;28;20462;-50
2020/12/26 07:37:08;;;;;;;2.97;2.50;;;1.70;99.90;;;;;;5038152;28;20990;-52
2020/12/26 07:39:43;;;;;;;3.83;2.80;;;1.70;99.90;;;;;;5033629;28;20497;-53
2020/12/26 07:42:08;;;;;;;3.37;2.10;;;1.50;99.90;;;;;;5035094;28;20634;-50
2020/12/26 07:44:34;;;;;;;2.10;2.00;;;1.40;99.90;;;;;;5036519;28;20418;-49
2020/12/26 07:47:00;;;;;;;2.10;1.90;;;1.20;99.90;;;;;;5034837;28;20211;-54
2020/12/26 07:49:26;;;;;;;2.63;2.07;;;1.10;99.90;;;;;;5023656;28;20497;-52
2020/12/26 07:52:02;;;;;;;2.30;2.10;;;1.00;99.90;;;;;;4994212;28;20200;-54
2020/12/26 07:54:28;;;;;;;2.20;1.97;;;0.90;99.90;;;;;;5036647;28;20532;-50
2020/12/26 07:56:55;;;;;;;3.17;2.10;;;1.00;99.90;;;;;;5036985;28;20425;-48
2020/12/26 07:59:24;;;;;;;2.43;2.23;;;1.00;99.90;;;;;;5036111;28;20661;-52
2020/12/26 08:01:51;;;;;;;2.47;2.27;;;0.90;99.90;;;;;;5010859;28;20458;-51
2020/12/26 08:04:17;;;;;;;2.50;1.90;;;0.90;99.90;;;;;;5035461;28;20453;-50
2020/12/26 08:06:44;;;;;;;2.23;2.03;;;0.90;99.90;;;;;;5034830;28;20910;-52
2020/12/26 08:09:12;;;;;;;2.07;1.90;;;0.80;99.90;;;;;;5034033;28;20670;-53
2020/12/26 08:11:38;;;;;;;2.20;2.00;;;0.90;99.90;;;;;;5038347;28;20429;-52
2020/12/26 08:14:05;;;;;;;2.73;2.30;;;0.90;99.90;;;;;;5037404;28;20454;-52
2020/12/26 08:16:31;;;;;;;2.43;2.23;;;0.90;99.90;;;;;;5021487;28;20179;-56
2020/12/26 08:18:56;;;;;;;2.63;2.20;;;0.90;99.90;;;;;;5025779;28;20768;-58
2020/12/26 08:21:22;;;;;;;2.80;1.97;;;0.90;99.90;;;;;;5018548;28;20180;-57
2020/12/26 08:23:58;;;;;;;2.20;2.00;;;0.90;99.90;;;;;;5020840;28;20692;-53
2020/12/26 08:26:25;;;;;;;2.23;2.07;;;0.80;99.90;;;;;;5020240;28;20183;-54
2020/12/26 08:28:58;;;;;;;2.30;2.10;;;0.80;99.90;;;;;;5002690;28;20488;-50
2020/12/26 08:31:24;;;;;;;3.60;2.10;;;0.80;99.90;;;;;;5018514;28;20435;-51
2020/12/26 08:34:12;;;;;;;2.57;2.00;;;0.70;99.90;;;;;;5038043;28;20776;-53
2020/12/26 08:36:47;;;;;;;2.27;2.07;;;0.70;99.90;;;;;;5038025;28;20978;-53
2020/12/26 08:39:17;;;;;;;2.30;2.10;;;0.70;99.90;;;;;;5038160;28;20437;-50
2020/12/26 08:41:45;;;;;;;2.77;2.20;;;0.80;99.90;;;;;;5036304;28;20395;-54
2020/12/26 08:44:12;;;;;;;2.30;2.10;;;0.70;99.90;;;;;;5032701;28;20521;-52
2020/12/26 08:46:45;;;;;;;2.83;2.27;;;0.80;99.90;;;;;;5031553;28;20414;-55
2020/12/26 08:49:15;;;;;;;2.10;1.90;;;0.80;99.90;;;;;;5034363;28;20426;-50
2020/12/26 08:51:43;;;;;;;2.20;2.00;;;0.80;99.90;;;;;;5034764;28;20410;-54
2020/12/26 08:54:18;;;;;;;2.63;2.23;;;0.80;99.90;;;;;;5036262;28;20837;-52
2020/12/26 08:56:44;;;;;;;2.00;1.80;;;0.90;99.90;;;;;;5030879;28;20438;-54
2020/12/26 08:59:09;;;;;;;2.43;2.10;;;0.90;99.90;;;;;;5025764;28;20936;-51
2020/12/26 09:01:35;;;;;;;2.23;2.07;;;0.90;99.90;;;;;;5024545;28;20165;-59
2020/12/26 09:04:01;;;;;;;2.23;2.03;;;1.00;99.90;;;;;;5028777;28;20173;-49
2020/12/26 09:06:42;;;;;;;2.50;2.10;;;0.90;99.90;;;;;;5002480;28;20176;-55
2020/12/26 09:09:15;;;;;;;2.37;2.10;;;0.90;99.90;;;;;;5021572;28;20196;-53
2020/12/26 09:11:41;;;;;;;3.17;2.60;;;0.90;99.90;;;;;;5018646;28;20416;-52
2020/12/26 09:14:22;;;;;;;2.80;2.10;;;1.00;99.90;;;;;;5014825;28;20479;-49
2020/12/26 09:16:56;;;;;;;2.83;2.20;;;1.00;99.90;;;;;;5019735;28;20256;-48
2020/12/26 09:19:22;;;;;;;4.17;2.60;;;1.00;99.90;;;;;;5033044;28;20450;-56
2020/12/26 09:21:47;;;;;;;3.10;2.13;;;1.10;99.90;;;;;;5036153;28;20430;-50
2020/12/26 09:24:18;;;;;;;2.27;2.00;;;1.10;99.90;;;;;;5036282;28;20262;-52
2020/12/26 09:26:44;;;;;;;3.50;2.20;;;1.20;99.90;;;;;;5030634;28;20189;-55
2020/12/26 09:29:09;;;;;;;3.03;2.70;;;1.30;99.90;;;;;;5025285;28;20454;-57
2020/12/26 09:31:37;;;;;;;2.37;2.10;;;1.40;99.90;;;;;;5026175;28;20262;-50
2020/12/26 09:34:20;;;;;;;3.20;2.10;;;1.40;99.90;;;;;;5025193;28;20290;-52
2020/12/26 09:36:46;;;;;;;2.37;2.10;;;1.50;99.90;;;;;;5027949;28;20427;-56
2020/12/26 09:39:12;;;;;;;2.50;2.20;;;1.50;99.90;;;;;;5026069;28;20458;-50
2020/12/26 09:41:49;;;;;;;3.37;2.20;;;1.60;99.90;;;;;;5025771;28;20609;-57
2020/12/26 09:44:15;;;;;;;2.20;2.00;;;1.60;99.90;;;;;;5023138;28;20411;-57
2020/12/26 09:46:41;;;;;;;2.40;2.20;;;1.60;99.90;;;;;;5008989;28;20423;-56
2020/12/26 09:49:08;;;;;;;2.60;2.10;;;1.60;99.90;;;;;;5023155;28;20465;-57
2020/12/26 09:51:33;;;;;;;1.83;1.73;;;1.70;99.90;;;;;;5029129;28;20184;-53
2020/12/26 09:53:59;;;;;;;2.33;2.13;;;1.80;99.90;;;;;;5027811;28;20474;-51
2020/12/26 09:56:26;;;;;;;2.03;1.87;;;1.90;99.90;;;;;;5025705;28;20173;-53
2020/12/26 09:58:52;;;;;;;2.37;2.00;;;2.10;99.90;;;;;;5024740;28;20679;-56
2020/12/26 10:01:20;;;;;;;1.87;1.63;;;2.10;99.90;;;;;;5030940;28;20202;-58
2020/12/26 10:03:47;;;;;;;2.70;2.10;;;2.10;99.90;;;;;;5025302;28;20186;-55
2020/12/26 10:06:14;;;;;;;4.17;1.87;;;2.30;99.90;;;;;;5012625;28;20223;-54
2020/12/26 10:08:42;;;;;;;1.80;1.70;;;2.40;99.90;;;;;;5031277;28;20207;-56
2020/12/26 10:11:09;;;;;;;2.03;1.83;;;2.60;99.90;;;;;;5022442;28;20184;-49
2020/12/26 10:13:35;;;;;;;1.90;1.80;;;2.60;99.90;;;;;;5038040;28;20218;-57
2020/12/26 10:16:00;;;;;;;2.30;2.10;;;2.60;99.90;;;;;;5037392;28;20302;-54
2020/12/26 10:18:26;;;;;;;2.10;2.00;;;2.50;99.90;;;;;;5039158;28;20196;-57
2020/12/26 10:20:51;;;;;;;1.70;1.60;;;2.40;99.90;;;;;;5039407;28;20313;-55
2020/12/26 10:23:17;;;;;;;2.10;1.90;;;2.50;99.90;;;;;;5036489;28;20211;-51
2020/12/26 10:25:42;;;;;;;2.63;1.83;;;2.50;99.90;;;;;;5041766;28;20183;-59
2020/12/26 10:28:08;;;;;;;2.60;2.10;;;2.30;99.90;;;;;;5039054;28;20341;-54
2020/12/26 10:30:33;;;;;;;2.77;2.33;;;2.20;99.90;;;;;;5021489;28;20687;-50
2020/12/26 10:32:59;;;;;;;3.03;2.57;;;2.00;99.90;;;;;;5040293;28;20190;-51
2020/12/26 10:35:24;;;;;;;2.10;1.90;;;2.10;99.90;;;;;;5019675;28;20710;-53
2020/12/26 10:37:50;;;;;;;3.10;2.33;;;2.20;99.90;;;;;;5041932;28;20278;-54
2020/12/26 10:40:16;;;;;;;2.80;2.07;;;2.10;99.90;;;;;;5038080;28;20180;-58
2020/12/26 10:42:41;;;;;;;2.53;2.10;;;2.00;99.90;;;;;;5039474;28;20203;-54
2020/12/26 10:45:07;;;;;;;2.77;2.20;;;1.90;99.90;;;;;;5039795;28;20187;-57
2020/12/26 10:47:32;;;;;;;2.77;1.90;;;1.90;99.90;;;;;;5019317;28;20245;-56
2020/12/26 10:49:58;;;;;;;1.73;1.63;;;2.10;99.90;;;;;;5037762;28;20190;-58
2020/12/26 10:52:23;;;;;;;2.57;1.67;;;2.20;99.90;;;;;;5038739;28;20591;-55
2020/12/26 10:54:49;;;;;;;2.10;1.87;;;2.40;99.90;;;;;;5038215;28;20590;-50
2020/12/26 10:57:15;;;;;;;2.30;1.70;;;2.60;99.90;;;;;;5035923;28;20544;-54
2020/12/26 10:59:40;;;;;;;2.17;1.60;;;2.80;99.90;;;;;;5037917;28;20828;-54
2020/12/26 11:02:06;;;;;;;2.13;2.00;;;2.90;99.90;;;;;;5039307;28;20175;-54
2020/12/26 11:04:31;;;;;;;2.23;1.90;;;3.10;99.90;;;;;;5030327;28;20557;-55
2020/12/26 11:06:57;;;;;;;2.30;2.10;;;2.90;99.90;;;;;;5026456;28;20180;-49
2020/12/26 11:09:22;;;;;;;1.83;1.67;;;2.70;99.90;;;;;;5027694;28;20197;-54
2020/12/26 11:11:49;;;;;;;2.93;1.83;;;2.80;99.90;;;;;;5026233;28;20230;-50
2020/12/26 11:14:15;;;;;;;2.10;1.90;;;2.90;99.90;;;;;;5030937;28;20611;-49
2020/12/26 11:16:46;;;;;;;2.70;1.90;;;2.90;99.90;;;;;;5032116;28;20680;-51
2020/12/26 11:19:11;;;;;;;3.13;1.80;;;2.90;99.90;;;;;;5027537;28;20196;-52
2020/12/26 11:21:37;;;;;;;1.77;1.67;;;3.10;99.90;;;;;;5026040;28;20291;-53
2020/12/26 11:24:02;;;;;;;1.87;1.50;;;3.10;99.90;;;;;;5010888;28;20187;-50
2020/12/26 11:26:28;;;;;;;2.20;1.80;;;3.10;99.90;;;;;;5028027;28;20205;-54
2020/12/26 11:28:53;;;;;;;2.00;1.70;;;3.20;99.90;;;;;;5030935;28;20214;-54
2020/12/26 11:31:23;;;;;;;1.70;1.60;;;3.20;99.90;;;;;;5027572;28;20189;-49
2020/12/26 11:33:49;;;;;;;2.87;1.80;;;3.10;99.90;;;;;;5024707;28;20231;-53
2020/12/26 11:36:23;;;;;;;2.20;1.90;;;3.10;99.90;;;;;;5018233;28;20601;-51
2020/12/26 11:38:50;;;;;;;2.33;1.80;;;3.10;99.90;;;;;;5021704;28;20207;-56
2020/12/26 11:41:20;;;;;;;1.97;1.70;;;3.10;99.90;;;;;;5030869;28;20176;-58
2020/12/26 11:43:46;;;;;;;3.27;1.90;;;3.10;99.90;;;;;;5028426;28;20190;-58
2020/12/26 11:46:12;;;;;;;1.93;1.83;;;3.10;99.90;;;;;;5025210;28;20175;-54
2020/12/26 11:48:38;;;;;;;2.57;1.73;;;3.10;99.90;;;;;;5028129;28;20215;-53
2020/12/26 11:51:05;;;;;;;1.87;1.70;;;3.10;99.90;;;;;;5027485;28;20185;-58
2020/12/26 11:53:31;;;;;;;2.50;2.13;;;3.10;99.90;;;;;;5025452;28;20242;-49
2020/12/26 11:55:56;;;;;;;1.80;1.70;;;3.10;99.90;;;;;;4993384;28;20208;-50
2020/12/26 11:58:23;;;;;;;7.03;4.90;;;3.20;99.90;;;;;;5028995;28;20197;-51
2020/12/26 12:00:56;;;;;;;13.43;7.03;;;3.40;99.90;;;;;;5025193;28;20207;-54
2020/12/26 12:03:22;;;;;;;8.67;5.67;;;3.60;99.90;;;;;;5029375;28;20184;-54
2020/12/26 12:05:47;;;;;;;2.43;2.23;;;3.60;99.90;;;;;;5028955;28;20176;-54
2020/12/26 12:08:14;;;;;;;3.57;1.90;;;3.50;99.90;;;;;;5020643;28;20207;-51
2020/12/26 12:10:40;;;;;;;2.67;2.10;;;3.50;99.90;;;;;;5021596;28;20211;-48
2020/12/26 12:13:07;;;;;;;2.70;2.20;;;4.50;99.90;;;;;;5038294;28;20176;-56
2020/12/26 12:15:33;;;;;;;1.97;1.73;;;4.00;99.90;;;;;;5037711;28;20172;-55
2020/12/26 12:17:59;;;;;;;2.87;2.00;;;4.30;99.90;;;;;;5035907;28;20202;-51
2020/12/26 12:20:27;;;;;;;2.07;1.70;;;4.70;99.90;;;;;;5032980;28;20183;-50
2020/12/26 12:22:52;;;;;;;2.23;1.80;;;4.90;99.90;;;;;;5028018;28;20559;-50
2020/12/26 12:25:18;;;;;;;3.33;1.87;;;5.00;99.90;;;;;;5038308;28;20225;-55
2020/12/26 12:27:43;;;;;;;2.93;1.80;;;5.10;99.90;;;;;;5037418;28;20203;-53
2020/12/26 12:30:09;;;;;;;3.40;2.00;;;5.20;99.90;;;;;;5030283;28;20192;-51
2020/12/26 12:32:34;;;;;;;1.97;1.77;;;5.20;99.90;;;;;;5023484;28;20185;-56
2020/12/26 12:35:00;;;;;;;4.00;1.97;;;5.10;99.90;;;;;;5019146;28;20200;-49
2020/12/26 12:37:25;;;;;;;3.17;1.73;;;4.60;99.90;;;;;;5018299;28;20207;-53
2020/12/26 12:39:51;;;;;;;1.90;1.80;;;4.30;99.90;;;;;;5017853;28;20184;-56
2020/12/26 12:42:16;;;;;;;3.23;2.07;;;4.00;99.90;;;;;;5014967;28;20188;-57
2020/12/26 12:44:42;;;;;;;1.93;1.67;;;4.00;99.90;;;;;;5016529;28;20185;-48
2020/12/26 12:47:07;;;;;;;2.13;1.70;;;4.20;99.90;;;;;;5017074;28;20185;-51
2020/12/26 12:49:33;;;;;;;2.40;1.57;;;4.50;99.90;;;;;;5017364;28;20216;-50
2020/12/26 12:52:03;;;;;;;3.77;1.43;;;4.70;99.90;;;;;;5018249;28;20537;-55
2020/12/26 12:54:29;;;;;;;2.20;1.70;;;4.60;99.90;;;;;;5024998;28;20231;-58
2020/12/26 12:56:55;;;;;;;15.90;9.13;;;4.70;99.90;;;;;;5037397;28;20187;-53